Time;durP1;ratioP1;P1;durP2;ratioP2;P2;SDS_P1;SDS_P2;PMS_P1;PMS_P2;Temp;Humidity;BMP_temperature;BMP_pressure;BME280_temperature;BME280_humidity;BME280_pressure;Samples;Min_cycle;Max_cycle;Signal;HPM_P1;HPM_P2
2023/12/28 00:01:33;;;;;;;21.30;12.43;;;;;;;9.22;72.44;101934.72;5058095;28;20047;-83
2023/12/28 00:04:27;;;;;;;21.90;10.30;;;;;;;9.18;73.21;101935.56;5060984;28;20041;-83
2023/12/28 00:07:19;;;;;;;19.93;12.77;;;;;;;9.68;71.42;101934.53;5059204;28;20048;-83
2023/12/28 00:10:14;;;;;;;27.70;13.50;;;;;;;9.56;71.79;101936.75;5056612;28;20422;-82
2023/12/28 00:13:09;;;;;;;18.60;11.60;;;;;;;9.82;71.08;101938.25;5060041;28;20041;-83
2023/12/28 00:15:58;;;;;;;24.52;13.70;;;;;;;10.02;70.81;101940.03;5056193;28;20459;-83
2023/12/28 00:18:53;;;;;;;20.98;13.35;;;;;;;10.04;69.59;101941.41;5055809;28;20453;-83
2023/12/28 00:21:48;;;;;;;19.60;12.05;;;;;;;9.96;70.16;101941.16;5059426;28;20040;-82
2023/12/28 00:24:42;;;;;;;18.07;10.23;;;;;;;9.97;70.05;101938.19;5057332;28;20045;-82
2023/12/28 00:27:37;;;;;;;21.00;13.70;;;;;;;9.73;70.13;101942.66;5061140;28;20045;-83
2023/12/28 00:30:32;;;;;;;27.45;15.00;;;;;;;9.76;70.87;101942.09;5070837;28;20425;-83
2023/12/28 00:33:27;;;;;;;36.13;19.43;;;;;;;9.84;70.17;101933.38;5055929;28;20512;-83
2023/12/28 00:36:23;;;;;;;31.25;18.90;;;;;;;9.96;69.42;101941.16;5043702;28;20041;-83
2023/12/28 00:39:15;;;;;;;35.40;18.73;;;;;;;9.72;70.18;101938.31;5055425;28;20041;-83
2023/12/28 00:42:09;;;;;;;35.33;19.58;;;;;;;9.85;69.96;101945.88;5045858;28;20494;-83
2023/12/28 00:45:02;;;;;;;38.53;20.13;;;;;;;10.20;68.89;101945.69;5061240;28;20037;-83
2023/12/28 00:47:56;;;;;;;41.13;22.80;;;;;;;10.17;67.78;101940.78;5060839;28;20036;-83
2023/12/28 00:50:48;;;;;;;46.33;25.60;;;;;;;10.18;68.07;101947.03;5079258;28;20040;-83
2023/12/28 00:53:42;;;;;;;51.92;28.48;;;;;;;10.34;67.33;101937.69;5075777;28;20052;-83
2023/12/28 00:56:35;;;;;;;51.13;22.48;;;;;;;10.25;67.60;101936.69;5065170;28;20052;-83
2023/12/28 00:59:29;;;;;;;45.42;24.00;;;;;;;10.38;66.96;101937.94;5063048;28;20037;-84
2023/12/28 01:02:22;;;;;;;41.10;22.65;;;;;;;10.44;66.17;101937.63;5074871;28;20048;-83
2023/12/28 01:05:16;;;;;;;44.20;23.25;;;;;;;10.38;66.42;101940.66;5062566;28;20044;-83
2023/12/28 01:08:08;;;;;;;37.67;22.27;;;;;;;10.43;66.40;101946.03;5075862;28;20040;-83
2023/12/28 01:11:03;;;;;;;43.45;23.42;;;;;;;10.21;67.05;101938.31;5075287;28;20049;-83
2023/12/28 01:13:57;;;;;;;40.93;21.93;;;;;;;10.17;67.47;101938.06;5078932;28;20036;-83
2023/12/28 01:16:52;;;;;;;36.90;19.60;;;;;;;10.37;66.72;101936.28;5077147;28;20044;-83
2023/12/28 01:19:46;;;;;;;29.93;15.57;;;;;;;10.47;66.31;101938.94;5074762;28;20037;-83
2023/12/28 01:22:40;;;;;;;31.33;17.05;;;;;;;10.55;66.33;101938.34;5062368;28;20640;-83
2023/12/28 01:25:34;;;;;;;33.75;18.77;;;;;;;10.66;65.98;101937.16;5075645;28;20045;-83
2023/12/28 01:28:30;;;;;;;30.45;16.42;;;;;;;10.50;66.66;101931.03;5077483;28;20067;-82
2023/12/28 01:31:24;;;;;;;35.83;17.08;;;;;;;10.35;66.99;101935.78;5066040;28;20040;-82
2023/12/28 01:34:19;;;;;;;31.48;16.85;;;;;;;10.43;66.95;101940.59;5079799;28;20048;-83
2023/12/28 01:37:11;;;;;;;35.38;17.77;;;;;;;10.33;66.83;101946.94;5082640;28;20052;-82
2023/12/28 01:40:03;;;;;;;33.85;16.10;;;;;;;10.44;67.23;101948.50;5078345;28;20398;-82
2023/12/28 01:42:58;;;;;;;23.75;14.07;;;;;;;10.64;66.99;101939.34;5074741;28;20036;-82
2023/12/28 01:45:50;;;;;;;29.98;16.38;;;;;;;10.32;67.19;101941.78;5079761;28;20033;-84
2023/12/28 01:48:46;;;;;;;26.88;15.35;;;;;;;10.14;69.46;101940.53;5069571;28;20481;-85
2023/12/28 01:51:44;;;;;;;29.33;15.38;;;;;;;10.43;68.28;101937.88;5067250;28;20041;-82
2023/12/28 01:54:40;;;;;;;24.80;14.00;;;;;;;10.05;68.82;101934.06;5080037;28;20044;-82
2023/12/28 01:57:34;;;;;;;18.98;10.75;;;;;;;10.29;68.81;101930.38;5079567;28;20588;-80
2023/12/28 02:00:27;;;;;;;23.08;11.07;;;;;;;10.53;67.99;101925.03;5065759;28;20045;-82
2023/12/28 02:03:22;;;;;;;22.42;14.38;;;;;;;10.60;67.14;101925.50;5069078;28;20062;-81
2023/12/28 02:06:16;;;;;;;22.52;13.52;;;;;;;10.56;66.22;101920.94;5066911;28;20044;-84
2023/12/28 02:09:10;;;;;;;27.95;14.27;;;;;;;9.95;67.99;101918.63;5079169;28;20497;-84
2023/12/28 02:12:02;;;;;;;24.50;14.38;;;;;;;9.75;69.37;101913.31;5068178;28;20047;-81
2023/12/28 02:14:57;;;;;;;30.45;15.43;;;;;;;10.01;70.13;101917.50;5065893;28;20036;-82
2023/12/28 02:18:09;;;;;;;28.95;16.20;;;;;;;10.35;67.99;101914.84;5069346;28;20041;-81
2023/12/28 02:21:04;;;;;;;23.77;15.00;;;;;;;10.46;67.43;101910.16;5065611;28;20040;-84
2023/12/28 02:23:56;;;;;;;20.10;11.07;;;;;;;9.94;67.40;101908.84;5069727;28;20045;-84
2023/12/28 02:26:46;;;;;;;27.75;15.43;;;;;;;10.29;67.45;101916.78;5078839;28;20041;-84
2023/12/28 02:29:40;;;;;;;32.97;13.57;;;;;;;10.47;66.75;101903.59;5080514;28;20040;-83
2023/12/28 02:33:05;;;;;;;28.43;14.17;;;;;;;9.89;69.92;101908.91;5084141;28;20111;-82
2023/12/28 02:36:09;;;;;;;25.58;14.98;;;;;;;10.34;67.71;101898.81;5054133;28;20063;-81
2023/12/28 02:39:04;;;;;;;27.05;15.55;;;;;;;10.48;67.03;101894.34;5082941;28;20036;-84
2023/12/28 02:42:00;;;;;;;25.05;12.02;;;;;;;10.50;67.17;101898.41;5078170;28;20048;-81
2023/12/28 02:44:49;;;;;;;26.13;14.48;;;;;;;10.63;67.36;101891.47;5081463;28;20505;-81
2023/12/28 02:47:44;;;;;;;24.52;12.85;;;;;;;10.54;66.47;101893.19;5066707;28;20048;-82
2023/12/28 02:50:42;;;;;;;23.58;14.68;;;;;;;10.42;68.15;101895.47;5079378;28;20041;-81
2023/12/28 02:53:35;;;;;;;20.83;12.80;;;;;;;10.52;67.72;101889.94;5078791;28;20036;-84
2023/12/28 02:56:29;;;;;;;23.08;13.50;;;;;;;10.56;67.37;101888.28;5080515;28;20036;-84
2023/12/28 02:59:24;;;;;;;17.48;9.77;;;;;;;10.65;67.02;101889.28;5069110;28;20041;-84
2023/12/28 03:02:19;;;;;;;24.73;13.50;;;;;;;10.65;66.78;101881.94;5078705;28;20681;-81
2023/12/28 03:05:13;;;;;;;23.67;14.13;;;;;;;10.37;68.19;101890.88;5064438;28;20409;-81
2023/12/28 03:08:08;;;;;;;21.23;12.02;;;;;;;10.38;67.97;101878.91;5068296;28;20036;-82
2023/12/28 03:11:03;;;;;;;22.98;13.35;;;;;;;10.40;68.02;101879.47;5077475;28;20041;-83
2023/12/28 03:13:57;;;;;;;52.00;29.97;;;;;;;10.28;69.16;101887.97;5068267;28;20040;-83
2023/12/28 03:16:55;;;;;;;28.13;15.40;;;;;;;10.39;68.48;101879.75;5066283;28;20493;-83
2023/12/28 03:19:50;;;;;;;20.15;12.75;;;;;;;10.48;67.94;101886.19;5075834;28;20032;-83
2023/12/28 03:22:42;;;;;;;24.27;13.13;;;;;;;10.58;68.22;101883.38;5065545;28;20060;-84
2023/12/28 03:25:36;;;;;;;21.65;13.60;;;;;;;10.01;70.24;101890.31;5077031;28;20107;-82
2023/12/28 03:28:32;;;;;;;23.42;13.48;;;;;;;10.17;70.51;101891.88;5061396;28;20502;-82
2023/12/28 03:31:27;;;;;;;22.42;13.10;;;;;;;10.04;71.01;101889.78;5079387;28;20048;-83
2023/12/28 03:34:17;;;;;;;27.10;14.00;;;;;;;10.31;69.70;101883.09;5077752;28;20036;-83
2023/12/28 03:37:11;;;;;;;23.30;13.88;;;;;;;10.32;69.67;101890.13;5065357;28;20489;-83
2023/12/28 03:40:06;;;;;;;19.07;10.90;;;;;;;10.43;69.54;101880.78;5075783;28;20040;-84
2023/12/28 03:43:01;;;;;;;18.27;11.67;;;;;;;10.39;70.04;101877.84;5075562;28;20270;-84
2023/12/28 03:45:55;;;;;;;20.43;12.17;;;;;;;10.39;69.58;101875.13;5061358;28;20262;-83
2023/12/28 03:48:50;;;;;;;18.02;11.13;;;;;;;10.42;69.58;101873.72;5077289;28;20275;-84
2023/12/28 03:51:44;;;;;;;16.65;11.32;;;;;;;10.48;69.58;101872.59;5065575;28;20037;-84
2023/12/28 03:54:39;;;;;;;18.02;11.23;;;;;;;10.45;68.99;101867.72;5075830;28;20036;-84
2023/12/28 03:57:34;;;;;;;21.50;11.65;;;;;;;10.17;70.06;101874.75;5060895;28;20040;-84
2023/12/28 04:00:28;;;;;;;16.80;11.32;;;;;;;10.25;69.79;101869.53;5075684;28;20041;-84
2023/12/28 04:03:21;;;;;;;15.90;9.90;;;;;;;9.68;70.71;101874.78;5076152;28;20036;-84
2023/12/28 04:06:15;;;;;;;15.27;8.52;;;;;;;9.50;71.93;101862.66;5081232;28;20540;-83
2023/12/28 04:09:10;;;;;;;13.50;8.60;;;;;;;9.61;72.01;101864.22;5079251;28;20047;-83
2023/12/28 04:12:02;;;;;;;18.75;11.45;;;;;;;9.63;71.85;101863.94;5075949;28;20528;-84
2023/12/28 04:14:54;;;;;;;18.53;11.47;;;;;;;9.79;71.16;101863.59;5064656;28;20037;-84
2023/12/28 04:17:49;;;;;;;16.45;10.30;;;;;;;9.94;69.73;101859.13;5076169;28;20048;-83
2023/12/28 04:20:41;;;;;;;14.15;8.80;;;;;;;9.80;71.72;101861.69;5076042;28;20405;-83
2023/12/28 04:23:33;;;;;;;16.83;9.30;;;;;;;9.80;71.04;101853.53;5076368;28;20402;-83
2023/12/28 04:26:33;;;;;;;16.00;9.90;;;;;;;9.75;71.66;101851.63;5075828;28;20548;-82
2023/12/28 04:29:25;;;;;;;17.50;9.93;;;;;;;9.48;69.27;101861.31;5079708;28;20429;-83
2023/12/28 04:32:17;;;;;;;19.97;8.97;;;;;;;9.55;70.25;101862.63;5076905;28;20044;-83
2023/12/28 04:35:12;;;;;;;16.52;9.43;;;;;;;9.43;69.88;101854.03;5075691;28;20285;-84
2023/12/28 04:38:02;;;;;;;15.52;8.13;;;;;;;9.57;69.91;101860.44;5064761;28;20047;-84
2023/12/28 04:40:57;;;;;;;21.83;9.85;;;;;;;9.97;68.37;101843.06;5075345;28;20040;-83
2023/12/28 04:43:46;;;;;;;20.65;9.32;;;;;;;9.68;67.60;101855.78;5065712;28;20055;-83
2023/12/28 04:46:42;;;;;;;16.15;8.48;;;;;;;9.31;68.78;101856.25;5077584;28;20048;-83
2023/12/28 04:49:34;;;;;;;;;;;;;;;9.53;69.17;101856.69;5076005;28;20035;-82
2023/12/28 04:52:26;;;;;;;15.55;7.78;;;;;;;9.47;68.00;101862.41;5070969;28;19912;-83
2023/12/28 04:55:20;;;;;;;15.30;9.63;;;;;;;9.80;68.41;101856.25;5072538;28;20421;-83
2023/12/28 04:58:13;;;;;;;9.63;5.93;;;;;;;10.06;66.58;101860.38;5080015;28;20035;-83
2023/12/28 05:01:08;;;;;;;13.00;8.00;;;;;;;10.25;65.82;101861.38;5055691;28;20068;-82
2023/12/28 05:04:01;;;;;;;12.82;7.07;;;;;;;10.02;65.88;101842.22;5062875;28;20039;-83
2023/12/28 05:06:53;;;;;;;15.15;9.23;;;;;;;9.73;66.76;101862.00;5084063;28;20539;-83
2023/12/28 05:09:47;;;;;;;19.05;8.88;;;;;;;9.96;67.46;101857.75;5059987;28;20048;-84
2023/12/28 05:12:40;;;;;;;15.27;8.40;;;;;;;9.56;68.36;101871.59;5077375;28;20051;-83
2023/12/28 05:15:34;;;;;;;12.80;6.23;;;;;;;9.88;68.27;101866.50;5079414;28;20087;-83
2023/12/28 05:18:26;;;;;;;13.45;8.18;;;;;;;10.10;66.92;101871.53;5074620;28;20362;-84
2023/12/28 05:21:20;;;;;;;16.83;8.10;;;;;;;10.22;66.30;101878.25;5069996;28;20053;-83
2023/12/28 05:24:08;;;;;;;10.73;5.47;;;;;;;10.29;66.47;101864.31;5074490;28;20040;-84
2023/12/28 05:27:00;;;;;;;12.95;7.90;;;;;;;10.29;67.02;101881.44;5077895;28;20044;-83
2023/12/28 05:29:52;;;;;;;14.98;8.20;;;;;;;10.34;66.62;101875.16;5081846;28;20044;-84
2023/12/28 05:32:44;;;;;;;15.65;8.88;;;;;;;10.36;67.15;101888.47;5081240;28;20040;-83
2023/12/28 05:35:38;;;;;;;14.95;8.20;;;;;;;10.27;66.99;101882.81;5078590;28;20032;-84
2023/12/28 05:38:33;;;;;;;12.93;8.10;;;;;;;10.27;66.26;101869.22;5077225;28;20039;-84
2023/12/28 05:41:27;;;;;;;12.45;8.75;;;;;;;10.26;66.22;101878.47;5073578;28;20047;-84
2023/12/28 05:44:20;;;;;;;12.27;6.85;;;;;;;10.31;66.75;101874.94;5062652;28;20708;-85
2023/12/28 05:47:15;;;;;;;13.65;8.77;;;;;;;10.37;65.88;101881.91;5059874;28;20052;-84
2023/12/28 05:50:08;;;;;;;13.88;8.20;;;;;;;10.36;65.88;101885.75;5066877;28;20037;-84
2023/12/28 05:53:00;;;;;;;15.88;8.55;;;;;;;10.14;66.36;101883.44;5081822;28;20032;-83
2023/12/28 05:55:55;;;;;;;15.88;8.43;;;;;;;10.17;65.68;101893.78;5076716;28;20044;-84
2023/12/28 05:58:49;;;;;;;15.20;7.97;;;;;;;10.25;65.48;101885.84;5082055;28;20047;-85
2023/12/28 06:01:48;;;;;;;16.37;7.67;;;;;;;10.21;65.46;101911.13;5074417;28;20501;-84
2023/12/28 06:04:42;;;;;;;11.90;7.35;;;;;;;10.18;63.76;101896.22;5071122;28;20047;-84
2023/12/28 06:07:34;;;;;;;10.60;7.15;;;;;;;10.27;64.81;101888.25;5082245;28;20044;-82
2023/12/28 06:10:32;;;;;;;18.00;8.85;;;;;;;9.90;65.45;101894.22;5074738;28;20033;-82
2023/12/28 06:13:17;;;;;;;25.85;7.35;;;;;;;9.41;68.83;101888.75;5078363;28;20051;-84
2023/12/28 06:16:11;;;;;;;13.52;8.63;;;;;;;9.74;67.09;101898.94;5076013;28;20524;-83
2023/12/28 06:19:03;;;;;;;14.37;8.40;;;;;;;10.01;65.52;101895.75;5074676;28;20047;-84
2023/12/28 06:21:58;;;;;;;15.95;9.30;;;;;;;10.02;65.49;101913.69;5079924;28;20270;-84
2023/12/28 06:24:50;;;;;;;21.85;9.30;;;;;;;10.13;64.89;101898.94;5073849;28;20055;-84
2023/12/28 06:27:42;;;;;;;12.83;7.63;;;;;;;10.14;64.98;101907.91;5073802;28;20037;-84
2023/12/28 06:30:39;;;;;;;13.68;8.85;;;;;;;10.14;65.49;101918.78;5079492;28;20517;-84
2023/12/28 06:33:34;;;;;;;14.50;9.15;;;;;;;9.69;65.89;101919.88;5077638;28;20044;-83
2023/12/28 06:36:26;;;;;;;13.48;6.95;;;;;;;9.42;66.55;101912.94;5081655;28;20048;-83
2023/12/28 06:39:19;;;;;;;13.52;8.75;;;;;;;9.27;67.10;101915.69;5078223;28;20048;-83
2023/12/28 06:42:11;;;;;;;14.52;9.23;;;;;;;9.18;68.04;101917.38;5061096;28;20394;-84
2023/12/28 06:45:05;;;;;;;15.10;8.55;;;;;;;9.26;68.34;101921.41;5078720;28;20048;-82
2023/12/28 06:48:00;;;;;;;23.20;9.87;;;;;;;9.19;68.83;101910.84;5078244;28;20047;-82
2023/12/28 06:50:52;;;;;;;26.13;8.60;;;;;;;9.19;69.47;101910.84;5080821;28;20044;-83
2023/12/28 06:53:46;;;;;;;21.65;10.98;;;;;;;9.21;69.97;101908.66;5078691;28;20417;-83
2023/12/28 06:56:39;;;;;;;29.50;10.43;;;;;;;9.18;70.12;101906.50;5076404;28;20036;-83
2023/12/28 06:59:31;;;;;;;15.60;9.32;;;;;;;9.14;69.92;101912.78;5080038;28;20043;-84
2023/12/28 07:02:25;;;;;;;17.92;9.32;;;;;;;9.09;70.85;101916.31;5077910;28;20047;-83
2023/12/28 07:05:19;;;;;;;12.70;6.97;;;;;;;9.11;71.76;101916.84;5072809;28;20557;-85
2023/12/28 07:08:14;;;;;;;15.77;9.40;;;;;;;9.12;70.82;101914.94;5079166;28;20528;-84
2023/12/28 07:11:06;;;;;;;19.50;9.70;;;;;;;9.06;71.20;101910.59;5076943;28;20520;-84
2023/12/28 07:14:01;;;;;;;25.83;11.60;;;;;;;9.11;70.93;101911.41;5080141;28;20043;-83
2023/12/28 07:16:53;;;;;;;23.23;11.68;;;;;;;9.02;71.11;101915.78;5077343;28;20509;-83
2023/12/28 07:19:45;;;;;;;16.83;9.90;;;;;;;9.07;70.73;101915.75;5080566;28;20045;-84
2023/12/28 07:22:37;;;;;;;19.35;10.80;;;;;;;9.16;70.93;101914.09;5078830;28;20047;-84
2023/12/28 07:25:32;;;;;;;18.27;9.60;;;;;;;9.28;70.03;101913.81;5076592;28;20520;-84
2023/12/28 07:28:24;;;;;;;24.03;10.77;;;;;;;9.22;70.31;101917.63;5079812;28;20047;-83
2023/12/28 07:31:24;;;;;;;21.33;9.07;;;;;;;9.28;69.76;101927.38;5077122;28;20036;-83
2023/12/28 07:34:19;;;;;;;17.77;9.18;;;;;;;9.25;69.39;101930.63;5075038;28;20524;-83
2023/12/28 07:37:11;;;;;;;20.60;9.57;;;;;;;9.28;69.68;101938.22;5078016;28;20043;-84
2023/12/28 07:40:03;;;;;;;28.08;11.70;;;;;;;9.32;69.83;101931.16;5081170;28;20047;-83
2023/12/28 07:42:57;;;;;;;31.88;11.30;;;;;;;9.38;69.51;101930.88;5080168;28;20036;-84
2023/12/28 07:45:52;;;;;;;21.23;9.23;;;;;;;9.28;68.90;101940.94;5077315;28;20405;-84
2023/12/28 07:48:46;;;;;;;18.77;9.63;;;;;;;9.31;69.15;101940.38;5069635;28;20047;-84
2023/12/28 07:51:41;;;;;;;24.60;10.23;;;;;;;9.29;70.16;101939.88;5077432;28;20051;-82
2023/12/28 07:54:33;;;;;;;31.23;11.70;;;;;;;9.31;68.92;101937.66;5076921;28;20413;-84
2023/12/28 07:57:28;;;;;;;24.67;9.27;;;;;;;9.35;68.56;101936.84;5080302;28;20052;-84
2023/12/28 08:00:22;;;;;;;26.65;11.00;;;;;;;9.35;68.39;101934.13;5069767;28;20691;-83
2023/12/28 08:03:20;;;;;;;18.17;8.67;;;;;;;9.36;68.71;101933.03;5067912;28;20036;-84
2023/12/28 08:06:13;;;;;;;17.20;8.05;;;;;;;9.60;68.21;101940.56;5064494;28;20043;-84
2023/12/28 08:09:07;;;;;;;16.05;7.68;;;;;;;9.55;67.59;101948.72;5070225;28;20432;-83
2023/12/28 08:12:02;;;;;;;27.50;10.13;;;;;;;9.61;67.03;101942.16;5081642;28;20532;-84
2023/12/28 08:14:57;;;;;;;16.63;7.60;;;;;;;9.68;66.97;101939.97;5075937;28;20772;-84
2023/12/28 08:17:48;;;;;;;37.28;12.57;;;;;;;9.63;67.25;101945.44;5073570;28;20044;-83
2023/12/28 08:20:43;;;;;;;18.88;9.63;;;;;;;9.84;66.77;101946.94;5076626;28;20033;-83
2023/12/28 08:23:38;;;;;;;25.70;9.57;;;;;;;10.02;65.94;101956.34;5075380;28;20048;-84
2023/12/28 08:26:32;;;;;;;22.33;9.20;;;;;;;10.01;65.59;101952.81;5079158;28;20039;-83
2023/12/28 08:29:27;;;;;;;12.50;6.87;;;;;;;10.14;65.08;101954.13;5077040;28;20305;-83
2023/12/28 08:32:21;;;;;;;27.33;10.77;;;;;;;10.11;64.90;101950.03;5074246;28;20102;-82
2023/12/28 08:35:16;;;;;;;21.20;9.38;;;;;;;10.04;66.39;101949.56;5076196;28;20048;-84
2023/12/28 08:38:08;;;;;;;26.45;9.52;;;;;;;10.28;65.93;101955.94;5068447;28;20044;-84
2023/12/28 08:41:00;;;;;;;16.00;9.20;;;;;;;10.57;64.42;101950.53;5066216;28;20032;-83
2023/12/28 08:43:52;;;;;;;21.63;8.73;;;;;;;10.67;63.88;101953.19;5076386;28;20642;-83
2023/12/28 08:46:47;;;;;;;19.40;10.07;;;;;;;10.68;63.42;101959.44;5074755;28;20043;-83
2023/12/28 08:49:42;;;;;;;26.33;11.03;;;;;;;10.87;62.11;101959.56;5077542;28;20048;-82
2023/12/28 08:52:34;;;;;;;27.27;10.43;;;;;;;10.77;62.50;101962.38;5066946;28;20155;-83
2023/12/28 08:55:26;;;;;;;33.45;10.40;;;;;;;10.76;63.09;101961.56;5070414;28;20417;-86
2023/12/28 08:58:20;;;;;;;26.85;10.15;;;;;;;10.81;62.98;101969.69;5077336;28;20048;-84
2023/12/28 09:01:29;;;;;;;17.10;9.00;;;;;;;10.61;63.90;101975.28;5075155;28;20041;-85
2023/12/28 09:04:21;;;;;;;23.48;10.48;;;;;;;10.86;63.16;101966.09;5078935;28;20055;-83
2023/12/28 09:07:16;;;;;;;27.02;10.63;;;;;;;11.00;62.92;101977.94;5074386;28;20044;-81
2023/12/28 09:10:08;;;;;;;38.53;12.45;;;;;;;11.07;61.98;101978.41;5075450;28;20036;-82
2023/12/28 09:13:02;;;;;;;29.40;10.82;;;;;;;10.96;62.79;101977.69;5077002;28;20049;-82
2023/12/28 09:15:54;;;;;;;17.67;8.68;;;;;;;11.13;62.49;101978.06;5074072;28;20036;-84
2023/12/28 09:18:46;;;;;;;26.10;12.63;;;;;;;11.25;61.78;101987.75;5078721;28;20051;-83
2023/12/28 09:21:36;;;;;;;32.88;13.27;;;;;;;11.37;61.75;101983.53;5076604;28;20040;-81
2023/12/28 09:24:30;;;;;;;30.90;11.32;;;;;;;11.47;61.51;101983.44;5074210;28;20044;-84
2023/12/28 09:27:22;;;;;;;21.50;11.43;;;;;;;11.60;61.28;101990.06;5077199;28;20037;-84
2023/12/28 09:30:17;;;;;;;22.08;11.63;;;;;;;11.67;61.32;101985.09;5074572;28;20037;-84
2023/12/28 09:33:15;;;;;;;22.55;11.45;;;;;;;11.79;60.06;101982.78;5077729;28;20028;-83
2023/12/28 09:36:11;;;;;;;17.30;9.90;;;;;;;12.10;58.90;101982.38;5071028;28;20037;-84
2023/12/28 09:39:00;;;;;;;25.50;12.60;;;;;;;12.19;57.04;101977.91;5073457;28;20632;-83
2023/12/28 09:41:59;;;;;;;26.75;14.02;;;;;;;12.28;57.65;101978.84;5076335;28;20036;-84
2023/12/28 09:44:48;;;;;;;25.98;14.52;;;;;;;12.34;57.49;101978.44;5075260;28;20044;-83
2023/12/28 09:47:43;;;;;;;22.98;13.18;;;;;;;12.58;57.12;101975.66;5072715;28;20401;-83
2023/12/28 09:50:35;;;;;;;16.38;9.50;;;;;;;12.52;57.68;101976.81;5081244;28;20040;-82
2023/12/28 09:53:28;;;;;;;19.42;12.85;;;;;;;13.05;56.19;101976.47;5080960;28;20071;-83
2023/12/28 09:56:25;;;;;;;24.10;14.63;;;;;;;13.36;55.46;101979.50;5083136;28;20036;-81
2023/12/28 09:59:19;;;;;;;21.45;9.63;;;;;;;13.46;54.62;101973.81;5081380;28;20048;-83
2023/12/28 10:02:04;;;;;;;46.67;14.63;;;;;;;13.61;54.57;101985.22;5078406;28;20052;-83
2023/12/28 10:04:59;;;;;;;21.42;12.80;;;;;;;13.83;53.84;101973.56;5080246;28;20040;-82
2023/12/28 10:07:53;;;;;;;32.43;17.50;;;;;;;14.52;51.80;101977.78;5078509;28;20052;-82
2023/12/28 10:10:50;;;;;;;31.50;13.43;;;;;;;14.75;50.84;101972.28;5079185;28;20275;-83
2023/12/28 10:13:43;;;;;;;23.92;13.82;;;;;;;15.87;48.24;101975.53;5079860;28;20506;-81
2023/12/28 10:16:44;;;;;;;16.25;11.32;;;;;;;16.13;46.79;101970.88;5077155;28;20421;-83
2023/12/28 10:19:34;;;;;;;20.58;13.82;;;;;;;16.53;47.06;101966.03;5080664;28;20040;-83
2023/12/28 10:22:23;;;;;;;21.02;12.68;;;;;;;16.90;45.26;101954.38;5060956;28;20040;-82
2023/12/28 10:25:16;;;;;;;23.40;14.20;;;;;;;17.71;43.45;101951.44;5072669;28;20040;-83
2023/12/28 10:28:12;;;;;;;23.27;14.48;;;;;;;18.03;42.28;101958.19;5079669;28;20040;-84
2023/12/28 10:31:06;;;;;;;27.15;15.13;;;;;;;20.97;36.98;101944.88;5077056;28;20045;-83
2023/12/28 10:34:02;;;;;;;31.70;14.80;;;;;;;21.06;36.56;101953.78;5080880;28;20036;-83
2023/12/28 10:36:52;;;;;;;21.55;13.77;;;;;;;21.00;35.89;101947.72;5078602;28;20497;-83
2023/12/28 10:39:54;;;;;;;23.98;15.65;;;;;;;20.07;37.08;101943.50;5076136;28;20493;-83
2023/12/28 10:42:58;;;;;;;25.00;15.25;;;;;;;21.77;35.86;101945.28;5078716;28;20041;-82
2023/12/28 10:45:55;;;;;;;22.75;15.27;;;;;;;28.80;24.63;101945.25;5074805;28;20048;-84
2023/12/28 10:48:49;;;;;;;22.55;14.93;;;;;;;28.19;24.51;101953.13;5080228;28;20037;-84
2023/12/28 10:51:45;;;;;;;20.08;14.23;;;;;;;26.20;26.17;101943.84;5075328;28;20048;-84
2023/12/28 10:54:56;;;;;;;20.02;14.35;;;;;;;26.26;25.70;101942.28;5080636;28;20033;-85
2023/12/28 10:58:00;;;;;;;19.83;14.80;;;;;;;27.03;26.32;101940.09;5077754;28;20052;-84
2023/12/28 11:01:01;;;;;;;21.15;16.60;;;;;;;24.84;27.85;101932.09;5079839;28;20036;-85
2023/12/28 11:04:00;;;;;;;25.83;16.17;;;;;;;25.88;27.13;101928.97;5078450;28;20044;-84
2023/12/28 11:06:56;;;;;;;23.13;16.30;;;;;;;29.19;23.65;101933.72;5075724;28;20040;-84
2023/12/28 11:09:51;;;;;;;23.13;15.68;;;;;;;29.44;22.30;101928.72;5079256;28;20041;-85
2023/12/28 11:12:45;;;;;;;30.83;17.85;;;;;;;27.29;24.58;101919.34;5076538;28;20429;-85
2023/12/28 11:15:39;;;;;;;27.85;17.40;;;;;;;25.19;27.09;101914.16;5093274;28;20408;-83
2023/12/28 11:18:31;;;;;;;26.15;16.40;;;;;;;24.76;28.62;101901.81;5097465;28;20489;-84
2023/12/28 11:21:27;;;;;;;20.17;15.10;;;;;;;25.67;27.66;101889.81;5091938;28;20513;-84
2023/12/28 11:24:21;;;;;;;21.83;15.60;;;;;;;24.94;27.26;101886.91;5078830;28;20039;-85
2023/12/28 11:27:13;;;;;;;25.25;17.92;;;;;;;24.84;28.26;101881.22;5068810;28;20032;-85
2023/12/28 11:30:08;;;;;;;30.05;17.08;;;;;;;25.23;27.63;101876.78;5079156;28;20032;-84
2023/12/28 11:33:01;;;;;;;27.02;17.33;;;;;;;25.40;27.73;101870.53;5077361;28;20033;-86
2023/12/28 11:35:56;;;;;;;21.90;17.02;;;;;;;26.57;25.67;101871.03;5074588;28;20421;-84
2023/12/28 11:38:46;;;;;;;23.27;15.82;;;;;;;27.02;24.98;101863.13;5078749;28;20044;-85
2023/12/28 11:41:47;;;;;;;21.13;15.30;;;;;;;28.15;22.81;101860.03;5072004;28;20045;-85
2023/12/28 11:44:44;;;;;;;27.40;16.80;;;;;;;28.21;22.57;101858.41;5077991;28;20125;-84
2023/12/28 11:47:34;;;;;;;24.55;15.02;;;;;;;28.89;22.40;101850.34;5068912;28;20032;-85
2023/12/28 11:50:28;;;;;;;25.30;15.25;;;;;;;29.56;21.77;101854.50;5074299;28;20044;-84
2023/12/28 11:53:21;;;;;;;19.77;14.65;;;;;;;23.75;28.87;101843.47;5088387;28;20040;-85
2023/12/28 11:56:17;;;;;;;25.70;15.88;;;;;;;22.56;30.03;101837.63;5072726;28;20517;-84
2023/12/28 11:59:12;;;;;;;22.08;14.07;;;;;;;21.64;31.24;101830.25;5078228;28;20037;-85
2023/12/28 12:02:05;;;;;;;;;;;;;;;20.96;32.55;101822.38;5075853;28;20502;-84
2023/12/28 12:04:56;;;;;;;28.77;13.95;;;;;;;20.30;34.41;101817.53;5070732;28;19913;-85
2023/12/28 12:07:54;;;;;;;21.92;13.85;;;;;;;20.51;33.67;101816.50;5078293;28;20036;-84
2023/12/28 12:10:48;;;;;;;21.40;13.90;;;;;;;20.95;33.93;101808.91;5074646;28;20028;-84
2023/12/28 12:13:40;;;;;;;26.65;15.05;;;;;;;19.57;35.98;101808.75;5078289;28;20040;-83
2023/12/28 12:16:31;;;;;;;24.08;13.43;;;;;;;18.56;38.01;101811.44;5072352;28;20044;-84
2023/12/28 12:19:25;;;;;;;20.88;14.32;;;;;;;18.06;39.68;101808.06;5069359;28;20437;-85
2023/12/28 12:22:20;;;;;;;25.75;13.35;;;;;;;17.75;39.12;101803.81;5080269;28;20032;-85
2023/12/28 12:25:16;;;;;;;17.05;11.18;;;;;;;17.36;40.29;101810.56;5070870;28;20036;-86
2023/12/28 12:28:08;;;;;;;18.60;12.52;;;;;;;16.41;41.75;101801.13;5081604;28;20497;-86
2023/12/28 12:31:02;;;;;;;21.10;12.70;;;;;;;16.00;43.12;101799.00;5066540;28;20041;-85
2023/12/28 12:33:52;;;;;;;19.73;12.20;;;;;;;15.47;44.11;101791.88;5073835;28;20040;-84
2023/12/28 12:36:44;;;;;;;19.40;11.05;;;;;;;15.48;44.58;101787.22;5079226;28;20053;-83
2023/12/28 12:39:36;;;;;;;23.63;13.52;;;;;;;15.45;45.25;101783.16;5055315;28;20033;-86
2023/12/28 12:42:30;;;;;;;18.92;12.00;;;;;;;15.52;44.87;101778.06;5073784;28;20040;-85
2023/12/28 12:45:21;;;;;;;18.98;11.35;;;;;;;15.40;44.52;101780.59;5070671;28;20056;-85
2023/12/28 12:48:16;;;;;;;15.70;10.75;;;;;;;15.23;45.05;101777.84;5056458;28;20037;-85
2023/12/28 12:51:06;;;;;;;17.38;10.30;;;;;;;14.77;45.71;101775.63;5078942;28;20044;-85
2023/12/28 12:54:00;;;;;;;17.42;10.73;;;;;;;14.72;46.07;101773.03;5078959;28;20413;-85
2023/12/28 12:56:52;;;;;;;15.43;10.32;;;;;;;14.74;46.18;101774.31;5077740;28;20036;-86
2023/12/28 12:59:43;;;;;;;18.13;9.52;;;;;;;15.13;44.92;101769.94;5084775;28;20049;-84
2023/12/28 13:02:41;;;;;;;15.73;10.13;;;;;;;15.19;44.79;101768.63;5081351;28;20041;-83
2023/12/28 13:05:38;;;;;;;18.80;9.40;;;;;;;15.02;44.51;101779.56;5076793;28;20052;-83
2023/12/28 13:08:32;;;;;;;17.00;10.48;;;;;;;14.83;45.54;101771.63;5080742;28;20044;-83
2023/12/28 13:11:26;;;;;;;18.98;10.60;;;;;;;14.67;46.09;101775.94;5075672;28;20036;-84
2023/12/28 13:14:20;;;;;;;21.30;11.35;;;;;;;14.68;46.55;101764.63;5078680;28;20044;-84
2023/12/28 13:17:15;;;;;;;18.83;9.70;;;;;;;14.63;46.29;101769.47;5075737;28;20179;-83